Time;durP1;ratioP1;P1;durP2;ratioP2;P2;SDS_P1;SDS_P2;PMS_P1;PMS_P2;Temp;Humidity;BMP_temperature;BMP_pressure;BME280_temperature;BME280_humidity;BME280_pressure;Samples;Min_cycle;Max_cycle;Signal;HPM_P1;HPM_P2
2022/12/18 00:00:47;;;;;;;;;69.25;54.75;;;;;-2.20;68.96;101553.56;5036415;28;45433;-70
2022/12/18 00:03:16;;;;;;;;;70.50;58.25;;;;;-2.18;69.31;101554.47;5037299;28;45365;-69
2022/12/18 00:05:52;;;;;;;;;68.50;57.50;;;;;-2.17;68.96;101557.91;5018969;28;45545;-71
2022/12/18 00:08:18;;;;;;;;;71.50;57.25;;;;;-2.15;69.30;101553.66;5036885;28;46749;-72
2022/12/18 00:10:44;;;;;;;;;65.25;54.00;;;;;-2.13;69.36;101555.47;5040563;28;45242;-71
2022/12/18 00:13:11;;;;;;;;;69.25;57.50;;;;;-2.12;69.67;101548.59;5042668;28;45505;-70
2022/12/18 00:15:38;;;;;;;;;68.50;57.25;;;;;-2.11;69.16;101547.78;5042677;28;45344;-70
2022/12/18 00:18:04;;;;;;;;;74.75;58.75;;;;;-2.08;69.58;101550.44;5038791;28;46280;-69
2022/12/18 00:20:30;;;;;;;;;68.25;53.50;;;;;-2.04;69.03;101544.56;5038375;28;45308;-70
2022/12/18 00:22:56;;;;;;;;;70.50;57.75;;;;;-2.03;69.57;101543.72;5038437;28;45363;-70
2022/12/18 00:25:21;;;;;;;;;74.67;60.67;;;;;-2.02;69.00;101542.88;5038757;28;45244;-69
2022/12/18 00:27:48;;;;;;;;;53.75;49.00;;;;;-2.02;69.63;101542.00;5039620;28;46274;-69
2022/12/18 00:30:13;;;;;;;;;66.75;56.00;;;;;-2.00;68.95;101546.38;5039410;28;45360;-69
2022/12/18 00:32:38;;;;;;;;;63.50;50.25;;;;;-1.97;69.21;101551.63;5038644;28;45242;-71
2022/12/18 00:35:05;;;;;;;;;65.50;53.00;;;;;-1.97;69.32;101549.03;5040119;28;45453;-68
2022/12/18 00:37:33;;;;;;;;;61.50;51.25;;;;;-1.97;68.86;101556.78;5038608;28;47117;-68
2022/12/18 00:39:58;;;;;;;;;58.75;50.00;;;;;-1.98;68.64;101569.59;5038294;28;45393;-69
2022/12/18 00:45:08;;;;;;;;;68.25;55.50;;;;;-2.02;68.86;101563.50;5038802;28;45380;-68
2022/12/18 00:47:33;;;;;;;;;61.25;53.50;;;;;-2.04;69.29;101564.28;5038017;28;45402;-70
2022/12/18 00:49:58;;;;;;;;;56.25;50.00;;;;;-2.14;69.02;101547.69;5037988;28;54818;-69
2022/12/18 00:52:24;;;;;;;;;53.75;47.50;;;;;-2.18;69.16;101532.97;5037719;28;45281;-70
2022/12/18 00:54:49;;;;;;;;;61.00;50.50;;;;;-2.04;68.90;101551.41;5037924;28;45560;-70
2022/12/18 00:57:14;;;;;;;;;62.25;52.00;;;;;-2.08;69.06;101548.72;5037395;28;45384;-70
2022/12/18 00:59:39;;;;;;;;;59.50;51.75;;;;;-2.07;68.96;101547.91;5037519;28;45389;-71
2022/12/18 01:02:05;;;;;;;;;70.75;56.25;;;;;-2.04;69.28;101551.41;5038242;28;45251;-69
2022/12/18 01:04:34;;;;;;;;;49.25;46.25;;;;;-2.08;68.55;101553.88;5038096;28;45376;-71
2022/12/18 01:06:59;;;;;;;;;58.00;50.00;;;;;-2.09;68.70;101548.72;5036698;28;46390;-68
2022/12/18 01:09:24;;;;;;;;;48.25;43.00;;;;;-2.09;68.74;101540.97;5037057;28;45439;-70
2022/12/18 01:11:50;;;;;;;;;67.75;57.75;;;;;-2.10;69.20;101545.25;5037988;28;45347;-69
2022/12/18 01:14:15;;;;;;;;;64.00;52.50;;;;;-2.11;68.67;101538.34;5019686;28;45299;-68
2022/12/18 01:16:41;;;;;;;;;65.25;52.75;;;;;-2.13;68.84;101540.00;5018535;28;46785;-69
2022/12/18 01:19:07;;;;;;;;;66.25;54.50;;;;;-2.16;68.59;101529.59;5037672;28;45451;-70
2022/12/18 01:21:32;;;;;;;;;59.75;51.50;;;;;-2.15;69.18;101527.88;5040205;28;45238;-69
2022/12/18 01:23:57;;;;;;;;;65.00;52.75;;;;;-2.20;69.05;101533.78;5038204;28;45336;-69
2022/12/18 01:26:25;;;;;;;;;63.25;52.25;;;;;-2.17;69.33;101532.13;5018933;28;47342;-68
2022/12/18 01:28:50;;;;;;;;;62.00;54.25;;;;;-2.18;68.62;101528.69;5036597;28;45334;-70
2022/12/18 01:31:21;;;;;;;;;60.50;51.25;;;;;-2.18;68.87;101540.69;5038969;28;45214;-71
2022/12/18 01:33:47;;;;;;;;;66.00;55.25;;;;;-2.20;69.10;101543.25;5020847;28;45560;-71
2022/12/18 01:36:23;;;;;;;;;55.00;47.50;;;;;-2.28;68.88;101530.13;5036949;28;46467;-70
2022/12/18 01:38:49;;;;;;;;;65.25;51.75;;;;;-2.23;68.96;101549.16;5037044;28;45364;-70
2022/12/18 01:41:17;;;;;;;;;53.00;48.25;;;;;-2.24;68.94;101536.25;5037415;28;45246;-70
2022/12/18 01:43:48;;;;;;;;;54.75;48.75;;;;;-2.29;69.00;101532.66;5037007;28;45444;-70
2022/12/18 01:46:14;;;;;;;;;61.25;52.00;;;;;-2.28;69.12;101535.28;5037159;28;45318;-72
2022/12/18 01:48:41;;;;;;;;;61.50;51.00;;;;;-2.39;68.85;101521.22;5040204;28;45438;-71
2022/12/18 01:51:09;;;;;;;;;60.50;52.25;;;;;-2.36;68.92;101523.88;5037888;28;45320;-69
2022/12/18 01:53:36;;;;;;;;;64.00;54.50;;;;;-2.36;69.28;101531.63;5037318;28;45352;-68
2022/12/18 01:56:01;;;;;;;;;58.25;49.75;;;;;-2.37;69.20;101516.97;5036003;28;45316;-70
2022/12/18 01:58:35;;;;;;;;;63.50;53.75;;;;;-2.39;69.03;101510.91;5035895;28;45437;-68
2022/12/18 02:01:00;;;;;;;;;65.75;56.75;;;;;-2.42;69.32;101511.72;5036770;28;45501;-69
2022/12/18 02:03:26;;;;;;;;;63.25;50.00;;;;;-2.43;69.30;101509.97;5036269;28;45261;-69
2022/12/18 02:06:27;;;;;;;;;56.25;51.25;;;;;-2.45;69.22;101510.75;5035930;28;46421;-69
2022/12/18 02:09:12;;;;;;;;;48.25;45.00;;;;;-2.50;69.34;101506.31;5036329;28;45359;-68
2022/12/18 02:12:01;;;;;;;;;62.00;50.50;;;;;-2.55;69.43;101494.16;5036159;28;45300;-71
2022/12/18 02:14:45;;;;;;;;;64.75;55.50;;;;;-2.55;69.50;101505.31;5037261;28;45348;-70
2022/12/18 02:17:20;;;;;;;;;59.50;50.50;;;;;-2.59;69.65;101488.03;5020161;28;46210;-70
2022/12/18 02:20:09;;;;;;;;;59.75;51.00;;;;;-2.59;69.71;101508.63;5035667;28;45331;-71
2022/12/18 02:23:10;;;;;;;;;68.25;54.25;;;;;-2.59;69.78;101494.91;5035872;28;45245;-68
2022/12/18 02:25:54;;;;;;;;;67.00;53.00;;;;;-2.64;69.77;101487.03;4989496;28;45304;-71
2022/12/18 02:28:25;;;;;;;;;60.50;49.25;;;;;-2.66;69.92;101478.38;5035353;28;45351;-70
2022/12/18 02:30:53;;;;;;;;;63.25;53.00;;;;;-2.71;70.04;101480.81;5035371;28;45463;-70
2022/12/18 02:33:20;;;;;;;;;53.75;45.50;;;;;-2.85;69.83;101461.50;5035717;28;45373;-68
2022/12/18 02:35:48;;;;;;;;;50.25;47.75;;;;;-2.75;69.98;101478.97;5037589;28;45401;-69
2022/12/18 02:38:15;;;;;;;;;56.25;49.50;;;;;-2.87;70.53;101469.22;5018510;28;46152;-69
2022/12/18 02:40:45;;;;;;;;;56.00;49.75;;;;;-2.82;69.93;101466.75;5037563;28;45300;-70
2022/12/18 02:43:14;;;;;;;;;46.75;44.75;;;;;-2.83;69.90;101462.44;5035800;28;45454;-72
2022/12/18 02:45:55;;;;;;;;;52.50;47.50;;;;;-2.82;70.43;101465.06;5035563;28;45549;-70
2022/12/18 02:48:29;;;;;;;;;55.75;51.00;;;;;-2.78;70.00;101463.44;5035403;28;46301;-70
2022/12/18 02:51:19;;;;;;;;;62.00;50.75;;;;;-2.84;70.52;101458.09;5017336;28;46412;-71
2022/12/18 02:53:56;;;;;;;;;61.75;53.00;;;;;-2.86;70.56;101458.09;5035814;28;45435;-69
2022/12/18 02:56:38;;;;;;;;;67.00;56.00;;;;;-2.88;70.62;101454.59;5017735;28;45288;-68
2022/12/18 02:59:12;;;;;;;;;59.25;48.50;;;;;-2.88;70.35;101464.00;5035376;28;45320;-68
2022/12/18 03:01:46;;;;;;;;;60.50;52.00;;;;;-2.90;70.36;101456.25;5035510;28;45383;-68
2022/12/18 03:04:21;;;;;;;;;61.75;51.25;;;;;-2.94;70.57;101446.69;5035774;28;45425;-69
2022/12/18 03:06:51;;;;;;;;;67.75;55.75;;;;;-2.97;70.31;101441.44;5036404;28;45349;-68
2022/12/18 03:09:27;;;;;;;;;67.25;56.25;;;;;-3.02;70.54;101446.44;5018943;28;47323;-68
2022/12/18 03:14:44;;;;;;;;;53.00;48.00;;;;;-2.99;70.83;101446.53;5035732;28;45303;-70
2022/12/18 03:17:15;;;;;;;;;65.75;52.50;;;;;-2.99;70.34;101461.13;5034959;28;45258;-68
2022/12/18 03:19:44;;;;;;;;;65.50;55.25;;;;;-3.04;71.00;101453.25;5034704;28;45392;-68
2022/12/18 03:22:10;;;;;;;;;55.00;48.25;;;;;-3.01;70.89;101457.63;5037247;28;45298;-67
2022/12/18 03:24:39;;;;;;;;;59.50;52.00;;;;;-3.10;71.05;101450.50;5019003;28;45364;-68
2022/12/18 03:27:11;;;;;;;;;60.50;53.25;;;;;-3.05;70.86;101468.66;5035158;28;45479;-68
2022/12/18 03:29:54;;;;;;;;;74.25;55.75;;;;;-3.13;70.93;101448.72;5034445;28;45524;-69
2022/12/18 03:32:27;;;;;;;;;62.50;52.00;;;;;-3.06;70.42;101459.19;5034551;28;45469;-68
2022/12/18 03:34:58;;;;;;;;;62.00;53.00;;;;;-3.11;70.86;101459.03;5042330;28;44752;-69
2022/12/18 03:37:23;;;;;;;;;63.50;52.00;;;;;-3.09;70.98;101452.25;5041387;28;45438;-70
2022/12/18 03:39:49;;;;;;;;;67.00;52.50;;;;;-3.14;71.13;101440.94;5035335;28;45845;-67
2022/12/18 03:42:17;;;;;;;;;63.00;52.25;;;;;-3.09;71.13;101457.38;5034811;28;45450;-68
2022/12/18 03:44:59;;;;;;;;;68.00;55.75;;;;;-3.14;71.10;101449.53;5037336;28;45318;-68
2022/12/18 03:47:53;;;;;;;;;67.00;55.75;;;;;-3.11;70.83;101457.34;5038420;28;45391;-68
2022/12/18 03:50:27;;;;;;;;;65.75;54.25;;;;;-3.10;71.10;101459.09;5038258;28;46108;-69
2022/12/18 03:52:59;;;;;;;;;62.00;52.00;;;;;-3.13;70.86;101456.44;5037907;28;45345;-69
2022/12/18 03:55:30;;;;;;;;;54.00;48.25;;;;;-3.21;70.97;101427.00;5037861;28;45288;-68
2022/12/18 03:57:56;;;;;;;;;63.50;52.25;;;;;-3.12;70.99;101445.31;5038078;28;45339;-69
2022/12/18 04:00:22;;;;;;;;;65.00;55.75;;;;;-3.12;71.03;101437.59;5039471;28;46281;-69
2022/12/18 04:02:52;;;;;;;;;58.25;52.00;;;;;-3.26;70.94;101418.25;5039746;28;45381;-68
2022/12/18 04:05:19;;;;;;;;;72.25;58.25;;;;;-3.21;71.04;101423.56;5038350;28;45273;-68
2022/12/18 04:07:47;;;;;;;;;60.75;50.25;;;;;-3.25;70.97;101415.75;5037966;28;45498;-71
2022/12/18 04:10:14;;;;;;;;;58.75;49.50;;;;;-3.23;71.20;101426.97;5038187;28;46169;-69
2022/12/18 04:12:40;;;;;;;;;58.50;49.75;;;;;-3.25;71.45;101413.19;5020282;28;45267;-70
2022/12/18 04:15:06;;;;;;;;;65.75;55.00;;;;;-3.25;71.40;101428.63;5037706;28;45221;-68
2022/12/18 04:17:31;;;;;;;;;60.00;49.00;;;;;-3.24;71.52;101421.75;5037934;28;45841;-70
2022/12/18 04:19:56;;;;;;;;;63.00;53.25;;;;;-3.28;71.42;101420.81;5037487;28;46467;-69
2022/12/18 04:22:22;;;;;;;;;66.25;54.75;;;;;-3.27;71.49;101429.38;5037395;28;54699;-69
2022/12/18 04:24:47;;;;;;;;;49.75;45.50;;;;;-3.27;71.27;101430.28;5037899;28;45313;-71
2022/12/18 04:27:13;;;;;;;;;62.00;52.50;;;;;-3.25;71.44;101438.91;5040000;28;45280;-69
2022/12/18 04:29:38;;;;;;;;;65.00;51.00;;;;;-3.25;71.74;101438.91;5039347;28;45244;-68
2022/12/18 04:32:04;;;;;;;;;62.75;55.50;;;;;-3.25;71.44;101423.47;5042416;28;45416;-69
2022/12/18 04:34:30;;;;;;;;;62.50;51.25;;;;;-3.20;71.71;101423.59;5039210;28;45451;-68
2022/12/18 04:36:55;;;;;;;;;47.00;45.25;;;;;-3.21;71.29;101419.28;5019855;28;45548;-73
2022/12/18 04:39:21;;;;;;;;;60.25;51.50;;;;;-3.17;71.55;101433.13;5037557;28;45336;-68
2022/12/18 04:41:46;;;;;;;;;67.25;54.50;;;;;-3.16;71.50;101442.59;5019157;28;45300;-69
2022/12/18 04:44:11;;;;;;;;;64.75;53.25;;;;;-3.16;71.53;101434.88;5037242;28;45482;-71
2022/12/18 04:46:36;;;;;;;;;54.50;49.00;;;;;-3.20;71.70;101426.16;5036752;28;47629;-70
2022/12/18 04:49:02;;;;;;;;;66.75;56.75;;;;;-3.14;71.81;101444.41;5037245;28;47074;-68
2022/12/18 04:51:27;;;;;;;;;59.75;49.75;;;;;-3.17;71.62;101438.28;5037990;28;45339;-70
2022/12/18 04:53:53;;;;;;;;;65.50;53.25;;;;;-3.23;71.81;101431.22;5039895;28;45438;-69
2022/12/18 04:56:19;;;;;;;;;58.00;51.50;;;;;-3.21;71.81;101434.72;5019813;28;45381;-69
2022/12/18 04:58:45;;;;;;;;;58.00;50.75;;;;;-3.16;71.60;101443.47;5038395;28;45504;-69
2022/12/18 05:01:12;;;;;;;;;56.25;49.00;;;;;-3.14;71.63;101444.41;5036915;28;45344;-70
2022/12/18 05:03:38;;;;;;;;;60.50;52.25;;;;;-3.15;71.70;101446.91;5018824;28;45309;-69
2022/12/18 05:06:05;;;;;;;;;66.50;56.25;;;;;-3.13;71.77;101442.69;5036998;28;45544;-69
2022/12/18 05:08:30;;;;;;;;;64.25;51.25;;;;;-3.11;71.46;101446.19;5036594;28;46380;-70
2022/12/18 05:11:05;;;;;;;;;59.75;49.00;;;;;-3.15;71.63;101449.47;5036602;28;45311;-70
2022/12/18 05:13:31;;;;;;;;;53.00;46.00;;;;;-3.21;71.68;101429.56;5037130;28;45433;-70
2022/12/18 05:15:57;;;;;;;;;56.00;50.25;;;;;-3.15;71.96;101445.22;5038211;28;45546;-70
2022/12/18 05:18:23;;;;;;;;;60.50;51.75;;;;;-3.14;71.79;101452.13;5037766;28;46317;-69
2022/12/18 05:20:50;;;;;;;;;56.25;50.25;;;;;-3.23;71.84;101436.38;5037442;28;45309;-70
2022/12/18 05:23:15;;;;;;;;;61.75;54.25;;;;;-3.16;71.84;101453.78;5039478;28;45253;-69
2022/12/18 05:25:41;;;;;;;;;60.00;52.00;;;;;-3.10;72.03;101453.06;5048964;28;45209;-69
2022/12/18 05:28:06;;;;;;;;;55.25;48.50;;;;;-3.07;71.86;101448.00;5044647;28;45416;-67
2022/12/18 05:30:31;;;;;;;;;59.00;51.75;;;;;-3.10;71.83;101456.53;5046719;28;45425;-69
2022/12/18 05:32:57;;;;;;;;;64.25;51.75;;;;;-3.12;71.75;101458.19;5044680;28;45158;-70
2022/12/18 05:35:22;;;;;;;;;69.00;54.00;;;;;-3.11;71.75;101465.09;5038885;28;45361;-69
2022/12/18 05:37:47;;;;;;;;;62.50;54.00;;;;;-3.22;71.92;101453.56;5036834;28;45566;-70
2022/12/18 05:40:13;;;;;;;;;68.67;56.00;;;;;-3.09;71.78;101476.28;5036836;28;45221;-70
2022/12/18 05:42:38;;;;;;;;;58.00;50.25;;;;;-3.08;71.94;101479.72;5037137;28;45219;-67
2022/12/18 05:45:05;;;;;;;;;65.50;54.75;;;;;-3.13;72.22;101471.00;5036704;28;45198;-69
2022/12/18 05:47:30;;;;;;;;;60.25;51.50;;;;;-3.11;71.64;101464.19;5038045;28;46274;-70
2022/12/18 05:49:56;;;;;;;;;53.50;49.25;;;;;-3.11;71.47;101459.94;5038570;28;45399;-69
2022/12/18 05:52:21;;;;;;;;;64.75;53.25;;;;;-3.13;71.99;101448.72;5039376;28;45428;-69
2022/12/18 05:54:47;;;;;;;;;55.75;49.75;;;;;-3.10;72.01;101453.06;5041740;28;45567;-69
2022/12/18 05:57:12;;;;;;;;;54.25;48.75;;;;;-3.08;71.85;101460.03;5037682;28;45946;-69
2022/12/18 05:59:37;;;;;;;;;59.50;52.00;;;;;-3.06;71.44;101446.31;5036047;28;45463;-69
2022/12/18 06:02:03;;;;;;;;;58.50;48.00;;;;;-3.10;71.74;101443.66;5035807;28;45360;-69
2022/12/18 06:04:28;;;;;;;;;60.50;49.50;;;;;-3.10;71.79;101437.63;5036176;28;45350;-68
2022/12/18 06:06:54;;;;;;;;;62.25;53.25;;;;;-3.11;71.95;101430.72;5035397;28;45364;-68
2022/12/18 06:09:19;;;;;;;;;68.25;54.25;;;;;-3.09;71.31;101440.25;5036006;28;45361;-69
2022/12/18 06:11:44;;;;;;;;;61.25;51.00;;;;;-3.06;71.62;101431.75;5017735;28;45634;-69
2022/12/18 06:14:10;;;;;;;;;58.50;49.75;;;;;-3.09;71.76;101423.94;5038922;28;45577;-68
2022/12/18 06:16:35;;;;;;;;;60.25;51.00;;;;;-3.03;71.88;101424.09;5036444;28;46136;-69
2022/12/18 06:19:03;;;;;;;;;64.75;56.25;;;;;-3.02;71.64;101425.00;5035934;28;51997;-69
2022/12/18 06:21:30;;;;;;;;;63.00;52.25;;;;;-3.02;71.65;101422.44;5017681;28;45284;-68
2022/12/18 06:23:55;;;;;;;;;55.25;50.25;;;;;-3.00;71.42;101433.63;5035938;28;45610;-70
2022/12/18 06:26:21;;;;;;;;;67.25;57.00;;;;;-3.07;71.36;101427.41;5035783;28;45341;-69
2022/12/18 06:28:46;;;;;;;;;65.50;52.75;;;;;-3.11;71.40;101423.91;5035755;28;45331;-69
2022/12/18 06:31:12;;;;;;;;;55.00;49.75;;;;;-3.01;71.75;101431.88;5036119;28;45339;-68
2022/12/18 06:33:38;;;;;;;;;56.75;47.00;;;;;-3.03;71.18;101434.41;5036167;28;45304;-69
2022/12/18 06:36:13;;;;;;;;;55.25;49.00;;;;;-3.06;71.70;101420.59;5037069;28;46128;-70
2022/12/18 06:38:41;;;;;;;;;53.00;47.50;;;;;-3.02;71.68;101431.00;5019802;28;45445;-68
2022/12/18 06:41:08;;;;;;;;;60.25;51.50;;;;;-3.11;71.61;101426.47;5019516;28;45303;-68
2022/12/18 06:43:33;;;;;;;;;57.75;49.25;;;;;-3.06;71.38;101436.03;5036708;28;45345;-69
2022/12/18 06:45:59;;;;;;;;;54.50;50.50;;;;;-3.05;71.52;101422.34;5035126;28;56422;-69
2022/12/18 06:48:25;;;;;;;;;65.50;56.00;;;;;-3.00;71.29;101431.06;5035814;28;45413;-69
2022/12/18 06:50:50;;;;;;;;;57.75;50.75;;;;;-3.01;71.32;101435.31;5034839;28;45364;-68
2022/12/18 06:53:15;;;;;;;;;58.75;52.00;;;;;-3.06;71.00;101423.16;5036351;28;45527;-70
2022/12/18 06:55:41;;;;;;;;;61.00;49.50;;;;;-3.07;71.14;101419.69;5034747;28;55135;-71
2022/12/18 06:58:06;;;;;;;;;60.25;49.25;;;;;-3.04;71.39;101408.63;5034821;28;45488;-70
2022/12/18 07:00:31;;;;;;;;;57.50;48.25;;;;;-3.06;71.17;101407.72;5035289;28;45263;-68
2022/12/18 07:02:57;;;;;;;;;64.50;49.50;;;;;-3.09;71.20;101414.53;5035876;28;45423;-69
2022/12/18 07:05:22;;;;;;;;;55.00;50.75;;;;;-3.21;71.22;101383.25;5035754;28;48540;-69
2022/12/18 07:07:48;;;;;;;;;59.75;52.00;;;;;-3.12;71.30;101392.94;5037248;28;45345;-70
2022/12/18 07:10:13;;;;;;;;;58.75;52.75;;;;;-3.20;71.10;101385.00;5035432;28;45419;-70
2022/12/18 07:12:38;;;;;;;;;55.50;49.00;;;;;-3.17;71.50;101399.66;5035207;28;45299;-70
2022/12/18 07:15:04;;;;;;;;;58.25;51.25;;;;;-3.15;71.27;101405.72;5035143;28;46688;-70
2022/12/18 07:17:30;;;;;;;;;53.75;49.25;;;;;-3.15;71.42;101403.16;5036501;28;45278;-69
2022/12/18 07:19:55;;;;;;;;;56.50;48.50;;;;;-3.14;70.94;101400.66;5039752;28;45221;-69
2022/12/18 07:22:21;;;;;;;;;61.25;49.00;;;;;-3.16;70.86;101396.25;5040786;28;45946;-70
2022/12/18 07:24:49;;;;;;;;;52.50;47.50;;;;;-3.19;71.21;101389.31;5039106;28;45354;-70
2022/12/18 07:27:15;;;;;;;;;56.25;49.75;;;;;-3.20;71.22;101391.84;5038896;28;45493;-68
2022/12/18 07:29:40;;;;;;;;;57.00;50.25;;;;;-3.17;71.25;101394.53;5038911;28;45409;-69
2022/12/18 07:32:06;;;;;;;;;53.25;47.75;;;;;-3.16;71.19;101396.25;5020640;28;45455;-69
2022/12/18 07:34:32;;;;;;;;;50.75;48.00;;;;;-3.56;71.28;101323.91;5038679;28;45479;-68
2022/12/18 07:36:57;;;;;;;;;61.50;53.75;;;;;-3.15;70.86;101405.72;5041175;28;45439;-70
2022/12/18 07:39:23;;;;;;;;;63.50;51.50;;;;;-3.16;71.09;101399.72;5039996;28;45404;-70
2022/12/18 07:42:30;;;;;;;;;66.50;54.00;;;;;-3.14;70.74;101418.66;5041334;28;45367;-69
2022/12/18 07:44:33;;;;;;;;;64.25;52.25;;;;;-3.14;70.65;101407.47;5039974;28;45923;-67
2022/12/18 07:46:58;;;;;;;;;53.75;47.50;;;;;-3.16;71.17;101415.16;5038515;28;45360;-69
2022/12/18 07:49:24;;;;;;;;;54.00;48.75;;;;;-3.17;70.98;101421.16;5038852;28;45322;-69
2022/12/18 07:51:49;;;;;;;;;53.50;49.00;;;;;-3.23;70.85;101416.69;5038311;28;45515;-70
2022/12/18 07:54:14;;;;;;;;;59.25;50.50;;;;;-3.16;70.88;101437.44;5038115;28;57204;-67
2022/12/18 07:56:40;;;;;;;;;59.75;49.00;;;;;-3.13;70.94;101430.69;5038119;28;54625;-67
2022/12/18 07:59:05;;;;;;;;;61.00;51.25;;;;;-3.12;71.07;101431.56;5038670;28;45147;-69
2022/12/18 08:01:31;;;;;;;;;68.00;56.50;;;;;-3.20;71.29;101404.72;5040487;28;45213;-67
2022/12/18 08:03:57;;;;;;;;;60.00;51.50;;;;;-3.11;70.96;101416.19;5019786;28;47539;-69
2022/12/18 08:06:23;;;;;;;;;60.75;50.00;;;;;-3.10;71.02;101407.63;5038439;28;45326;-68
2022/12/18 08:08:48;;;;;;;;;55.00;47.75;;;;;-3.06;71.22;101413.72;5038417;28;45386;-69
2022/12/18 08:11:13;;;;;;;;;48.50;47.00;;;;;-3.10;70.96;101402.47;5030043;28;45680;-69
2022/12/18 08:13:38;;;;;;;;;59.75;48.50;;;;;-3.18;70.62;101379.91;5040440;28;53981;-71
2022/12/18 08:16:07;;;;;;;;;49.50;46.50;;;;;-3.05;70.67;101399.16;5037744;28;45324;-69
2022/12/18 08:18:33;;;;;;;;;60.75;51.25;;;;;-3.05;70.99;101399.16;5038083;28;45277;-69
2022/12/18 08:21:10;;;;;;;;;70.33;57.67;;;;;-2.97;70.94;101413.13;5038010;28;45447;-69
2022/12/18 08:23:36;;;;;;;;;60.00;51.75;;;;;-2.97;70.64;101414.00;5037556;28;45840;-70
2022/12/18 08:26:01;;;;;;;;;64.50;52.00;;;;;-2.98;70.62;101412.25;5038343;28;45155;-70
2022/12/18 08:28:26;;;;;;;;;53.75;48.75;;;;;-3.21;70.67;101366.94;5040139;28;45271;-70
2022/12/18 08:30:52;;;;;;;;;56.50;50.75;;;;;-2.88;70.74;101420.22;5037928;28;45569;-69
2022/12/18 08:33:18;;;;;;;;;65.25;52.75;;;;;-2.87;70.55;101422.88;5037516;28;46155;-70
2022/12/18 08:35:43;;;;;;;;;58.25;50.00;;;;;-3.20;70.54;101369.56;5037172;28;45227;-69
2022/12/18 08:38:08;;;;;;;;;56.75;48.75;;;;;-2.76;70.66;101446.31;5037552;28;45325;-69
2022/12/18 08:40:34;;;;;;;;;57.75;50.50;;;;;-2.77;70.22;101439.44;5038264;28;45518;-69
2022/12/18 08:45:43;;;;;;;;;55.00;49.25;;;;;-2.69;70.09;101435.38;5022328;28;45360;-70
2022/12/18 08:48:09;;;;;;;;;54.00;48.50;;;;;-2.64;70.05;101443.25;5019160;28;45307;-68
2022/12/18 08:50:34;;;;;;;;;62.25;50.00;;;;;-2.62;70.14;101435.56;5037811;28;45251;-69
2022/12/18 08:53:00;;;;;;;;;56.25;49.75;;;;;-2.56;70.12;101444.31;5037453;28;45376;-69
2022/12/18 08:55:25;;;;;;;;;60.00;51.25;;;;;-2.53;69.81;101441.84;5039980;28;45438;-71
2022/12/18 08:57:51;;;;;;;;;77.75;60.50;;;;;-2.50;69.71;101454.81;5039243;28;45432;-69
2022/12/18 09:00:16;;;;;;;;;53.50;47.25;;;;;-2.43;69.91;101458.44;5018960;28;45647;-70
2022/12/18 09:02:42;;;;;;;;;64.00;54.25;;;;;-2.40;69.73;101458.50;5036502;28;45392;-70
2022/12/18 09:05:07;;;;;;;;;63.25;52.25;;;;;-2.33;69.92;101464.69;5036629;28;45284;-70
2022/12/18 09:07:33;;;;;;;;;55.25;47.25;;;;;-2.29;69.56;101455.34;5039053;28;45557;-70
2022/12/18 09:09:58;;;;;;;;;54.00;47.75;;;;;-2.33;69.62;101431.19;5025734;28;45281;-70
2022/12/18 09:12:23;;;;;;;;;61.75;48.25;;;;;-2.20;69.61;101440.13;5036730;28;46160;-70
2022/12/18 09:14:49;;;;;;;;;50.25;45.50;;;;;-2.20;69.50;101433.25;5018506;28;45452;-70
2022/12/18 09:17:14;;;;;;;;;59.00;47.25;;;;;-2.11;69.53;101442.94;5036591;28;45421;-70
2022/12/18 09:19:39;;;;;;;;;55.75;49.75;;;;;-2.11;69.48;101435.22;5037769;28;45514;-68
2022/12/18 09:22:05;;;;;;;;;58.75;49.25;;;;;-2.08;69.07;101443.03;5037643;28;45947;-68
2022/12/18 09:24:30;;;;;;;;;59.75;48.25;;;;;-2.02;69.11;101439.75;5036668;28;45242;-70
2022/12/18 09:26:56;;;;;;;;;61.50;52.00;;;;;-1.99;68.67;101432.09;5036349;28;45184;-69
2022/12/18 09:29:21;;;;;;;;;58.25;49.00;;;;;-1.95;68.90;101440.75;5036925;28;45264;-68
2022/12/18 09:31:47;;;;;;;;;65.50;55.25;;;;;-1.86;68.46;101445.28;5036371;28;46145;-68
2022/12/18 09:34:12;;;;;;;;;50.00;46.00;;;;;-1.83;69.15;101429.88;5036756;28;45259;-69
2022/12/18 09:36:37;;;;;;;;;57.25;49.50;;;;;-1.82;68.44;101427.34;5036412;28;45230;-69
2022/12/18 09:39:04;;;;;;;;;65.00;52.75;;;;;-1.78;67.82;101431.72;5036767;28;45541;-68
2022/12/18 09:41:55;;;;;;;;;65.50;53.75;;;;;-1.76;68.74;101424.03;5035362;28;46251;-69
2022/12/18 09:44:25;;;;;;;;;45.00;43.00;;;;;-1.67;68.30;101425.97;5037207;28;45413;-69
2022/12/18 09:47:12;;;;;;;;;55.25;48.50;;;;;-1.65;68.09;101429.44;5038161;28;45258;-71
2022/12/18 09:49:46;;;;;;;;;66.75;52.75;;;;;-1.62;67.56;101421.78;5036944;28;45325;-69
2022/12/18 09:52:21;;;;;;;;;58.00;45.50;;;;;-1.59;67.97;101434.78;5036132;28;45356;-70
2022/12/18 09:55:01;;;;;;;;;58.50;50.00;;;;;-1.54;68.09;101434.88;5018249;28;45441;-69
2022/12/18 09:57:26;;;;;;;;;57.75;47.00;;;;;-1.50;67.62;101434.09;5018467;28;45456;-68
2022/12/18 09:59:58;;;;;;;;;61.50;52.00;;;;;-1.44;68.03;101421.34;5036022;28;45505;-70
2022/12/18 10:02:25;;;;;;;;;58.50;49.25;;;;;-1.39;67.82;101414.56;5022365;28;46251;-69
2022/12/18 10:04:57;;;;;;;;;50.75;45.00;;;;;-1.37;67.54;101412.91;5035398;28;45407;-68
2022/12/18 10:07:35;;;;;;;;;61.00;50.75;;;;;-1.28;67.93;101420.00;5024706;28;45433;-71
2022/12/18 10:10:50;;;;;;;;;59.25;49.25;;;;;-1.22;67.22;101416.66;5016146;28;45432;-69
2022/12/18 10:13:39;;;;;;;;;63.25;51.00;;;;;-1.15;67.37;101409.94;5010461;28;45725;-70
2022/12/18 10:16:07;;;;;;;;;65.75;52.50;;;;;-1.12;67.41;101405.69;5015814;28;45477;-68
2022/12/18 10:19:01;;;;;;;;;69.75;57.75;;;;;-1.10;67.21;101404.00;5015423;28;45431;-68
2022/12/18 10:21:45;;;;;;;;;61.50;51.00;;;;;-1.02;67.17;101418.81;4998080;28;45526;-69
2022/12/18 10:24:20;;;;;;;;;53.50;46.25;;;;;-1.00;66.54;101415.41;5016505;28;45507;-69
2022/12/18 10:26:47;;;;;;;;;64.50;53.25;;;;;-0.99;67.17;101399.09;5015874;28;45477;-68
2022/12/18 10:29:14;;;;;;;;;65.25;53.25;;;;;-0.84;67.09;101392.47;4997711;28;45442;-73
2022/12/18 10:31:40;;;;;;;;;59.50;50.75;;;;;-0.77;67.05;101391.75;5017741;28;45487;-71
2022/12/18 10:34:13;;;;;;;;;60.25;51.00;;;;;-0.67;66.43;101392.81;5017645;28;45454;-68
2022/12/18 10:36:38;;;;;;;;;58.75;50.00;;;;;-0.67;66.47;101379.91;5016824;28;45429;-70
2022/12/18 10:39:27;;;;;;;;;55.75;48.00;;;;;-0.50;66.53;101401.75;5015218;28;45457;-70
2022/12/18 10:42:10;;;;;;;;;66.25;54.25;;;;;-0.43;66.14;101391.53;5016804;28;45427;-69
2022/12/18 10:44:36;;;;;;;;;60.00;48.25;;;;;-0.42;66.04;101388.09;5017693;28;46340;-70
2022/12/18 10:47:10;;;;;;;;;59.75;50.00;;;;;-0.43;66.08;101376.91;4998356;28;45688;-69
2022/12/18 10:49:39;;;;;;;;;63.25;52.50;;;;;-0.31;66.33;101382.31;5030379;28;45458;-70
2022/12/18 10:52:13;;;;;;;;;57.50;50.00;;;;;-0.17;65.94;101394.59;4997684;28;45630;-70
2022/12/18 10:54:39;;;;;;;;;70.75;57.50;;;;;-0.08;65.72;101388.69;4997565;28;47558;-69
2022/12/18 10:57:15;;;;;;;;;80.00;63.75;;;;;-0.03;65.61;101379.28;5034074;28;45427;-70
2022/12/18 10:59:54;;;;;;;;;64.00;53.75;;;;;0.00;65.84;101369.03;5035171;28;45398;-69
2022/12/18 11:02:37;;;;;;;;;61.75;52.25;;;;;0.11;65.63;101379.53;5015919;28;45449;-71
2022/12/18 11:05:22;;;;;;;;;62.00;52.00;;;;;0.19;65.30;101384.84;5034002;28;45508;-71
2022/12/18 11:07:53;;;;;;;;;43.25;40.25;;;;;0.24;65.05;101375.44;5017164;28;45530;-70
2022/12/18 11:10:21;;;;;;;;;59.25;49.00;;;;;0.27;64.93;101372.88;5036265;28;45289;-70
2022/12/18 11:12:47;;;;;;;;;56.50;46.25;;;;;0.33;64.52;101365.22;5034606;28;45466;-71
2022/12/18 11:15:20;;;;;;;;;64.00;51.50;;;;;0.39;64.90;101364.41;5017808;28;47099;-71
2022/12/18 11:17:49;;;;;;;;;56.25;47.50;;;;;0.43;64.47;101369.69;5035289;28;45419;-69
2022/12/18 11:20:21;;;;;;;;;59.50;48.00;;;;;0.48;64.66;101374.91;5037373;28;45341;-72
2022/12/18 11:22:58;;;;;;;;;56.75;48.50;;;;;0.49;64.56;101366.28;5035060;28;45318;-69
2022/12/18 11:25:24;;;;;;;;;62.00;51.75;;;;;0.57;64.33;101363.81;5034806;28;46384;-69